sensor_id;sensor_type;location;lat;lon;timestamp;P1;durP1;ratioP1;P2;durP2;ratioP2
31638;SDS011;18248;51.522;7.020;2023-02-15T00:01:06;71.00;;;31.33;;
31638;SDS011;18248;51.522;7.020;2023-02-15T00:04:06;55.80;;;26.63;;
31638;SDS011;18248;51.522;7.020;2023-02-15T00:07:06;61.75;;;25.48;;
31638;SDS011;18248;51.522;7.020;2023-02-15T00:10:05;49.95;;;24.73;;
31638;SDS011;18248;51.522;7.020;2023-02-15T00:13:05;49.33;;;23.85;;
31638;SDS011;18248;51.522;7.020;2023-02-15T00:16:04;61.90;;;29.15;;
31638;SDS011;18248;51.522;7.020;2023-02-15T00:19:04;51.03;;;25.27;;
31638;SDS011;18248;51.522;7.020;2023-02-15T00:22:03;49.65;;;24.55;;
31638;SDS011;18248;51.522;7.020;2023-02-15T00:25:01;57.13;;;25.50;;
31638;SDS011;18248;51.522;7.020;2023-02-15T00:28:00;54.70;;;25.42;;
31638;SDS011;18248;51.522;7.020;2023-02-15T00:31:03;53.47;;;24.58;;
31638;SDS011;18248;51.522;7.020;2023-02-15T00:34:19;51.05;;;24.25;;
31638;SDS011;18248;51.522;7.020;2023-02-15T00:37:19;82.57;;;37.28;;
31638;SDS011;18248;51.522;7.020;2023-02-15T00:40:18;78.20;;;38.78;;
31638;SDS011;18248;51.522;7.020;2023-02-15T00:43:17;72.72;;;34.30;;
31638;SDS011;18248;51.522;7.020;2023-02-15T00:46:16;70.65;;;31.05;;
31638;SDS011;18248;51.522;7.020;2023-02-15T00:49:14;65.53;;;29.65;;
31638;SDS011;18248;51.522;7.020;2023-02-15T00:52:14;67.55;;;31.88;;
31638;SDS011;18248;51.522;7.020;2023-02-15T00:55:12;57.58;;;26.52;;
31638;SDS011;18248;51.522;7.020;2023-02-15T00:58:11;79.97;;;36.03;;
31638;SDS011;18248;51.522;7.020;2023-02-15T01:01:12;66.68;;;29.95;;
31638;SDS011;18248;51.522;7.020;2023-02-15T01:04:13;50.85;;;24.48;;
31638;SDS011;18248;51.522;7.020;2023-02-15T01:07:11;55.90;;;25.27;;
31638;SDS011;18248;51.522;7.020;2023-02-15T01:10:10;49.05;;;23.55;;
31638;SDS011;18248;51.522;7.020;2023-02-15T01:13:08;68.35;;;32.85;;
31638;SDS011;18248;51.522;7.020;2023-02-15T01:16:10;61.03;;;27.50;;
31638;SDS011;18248;51.522;7.020;2023-02-15T01:19:08;52.85;;;24.45;;
31638;SDS011;18248;51.522;7.020;2023-02-15T01:22:07;48.28;;;22.55;;
31638;SDS011;18248;51.522;7.020;2023-02-15T01:25:05;47.35;;;22.30;;
31638;SDS011;18248;51.522;7.020;2023-02-15T01:28:04;52.08;;;23.98;;
31638;SDS011;18248;51.522;7.020;2023-02-15T01:31:09;57.15;;;24.95;;
31638;SDS011;18248;51.522;7.020;2023-02-15T01:34:10;49.05;;;23.33;;
31638;SDS011;18248;51.522;7.020;2023-02-15T01:37:10;48.65;;;22.83;;
31638;SDS011;18248;51.522;7.020;2023-02-15T01:40:12;63.60;;;28.58;;
31638;SDS011;18248;51.522;7.020;2023-02-15T01:43:13;61.38;;;27.92;;
31638;SDS011;18248;51.522;7.020;2023-02-15T01:46:13;44.10;;;21.15;;
31638;SDS011;18248;51.522;7.020;2023-02-15T01:49:15;59.20;;;26.88;;
31638;SDS011;18248;51.522;7.020;2023-02-15T01:52:17;56.22;;;25.08;;
31638;SDS011;18248;51.522;7.020;2023-02-15T01:55:18;45.72;;;21.88;;
31638;SDS011;18248;51.522;7.020;2023-02-15T01:58:20;50.85;;;22.85;;
31638;SDS011;18248;51.522;7.020;2023-02-15T02:01:20;65.72;;;28.48;;
31638;SDS011;18248;51.522;7.020;2023-02-15T02:04:23;55.50;;;26.77;;
31638;SDS011;18248;51.522;7.020;2023-02-15T02:07:38;52.53;;;24.25;;
31638;SDS011;18248;51.522;7.020;2023-02-15T02:10:39;68.60;;;31.85;;
31638;SDS011;18248;51.522;7.020;2023-02-15T02:13:41;54.40;;;25.60;;
31638;SDS011;18248;51.522;7.020;2023-02-15T02:23:17;58.47;;;26.90;;
31638;SDS011;18248;51.522;7.020;2023-02-15T02:26:58;56.85;;;23.38;;
31638;SDS011;18248;51.522;7.020;2023-02-15T02:30:20;52.25;;;24.95;;
31638;SDS011;18248;51.522;7.020;2023-02-15T02:37:09;53.35;;;23.55;;
31638;SDS011;18248;51.522;7.020;2023-02-15T02:40:32;62.80;;;26.33;;
31638;SDS011;18248;51.522;7.020;2023-02-15T02:50:08;55.92;;;25.02;;
31638;SDS011;18248;51.522;7.020;2023-02-15T02:53:13;45.95;;;22.45;;
31638;SDS011;18248;51.522;7.020;2023-02-15T02:56:17;55.33;;;26.48;;
31638;SDS011;18248;51.522;7.020;2023-02-15T02:59:23;47.92;;;22.17;;
31638;SDS011;18248;51.522;7.020;2023-02-15T03:02:28;46.00;;;22.48;;
31638;SDS011;18248;51.522;7.020;2023-02-15T03:05:34;45.33;;;22.90;;
31638;SDS011;18248;51.522;7.020;2023-02-15T03:08:42;61.47;;;29.45;;
31638;SDS011;18248;51.522;7.020;2023-02-15T03:11:44;51.97;;;24.67;;
31638;SDS011;18248;51.522;7.020;2023-02-15T03:14:44;44.35;;;21.58;;
31638;SDS011;18248;51.522;7.020;2023-02-15T03:17:47;46.33;;;20.90;;
31638;SDS011;18248;51.522;7.020;2023-02-15T03:20:52;41.95;;;20.25;;
31638;SDS011;18248;51.522;7.020;2023-02-15T03:23:52;60.20;;;26.02;;
31638;SDS011;18248;51.522;7.020;2023-02-15T03:26:55;57.88;;;28.67;;
31638;SDS011;18248;51.522;7.020;2023-02-15T03:29:56;51.90;;;24.75;;
31638;SDS011;18248;51.522;7.020;2023-02-15T03:32:57;51.60;;;23.38;;
31638;SDS011;18248;51.522;7.020;2023-02-15T03:36:02;56.20;;;26.30;;
31638;SDS011;18248;51.522;7.020;2023-02-15T03:46:39;54.85;;;25.58;;
31638;SDS011;18248;51.522;7.020;2023-02-15T03:49:53;53.28;;;24.30;;
31638;SDS011;18248;51.522;7.020;2023-02-15T03:52:57;41.85;;;21.27;;
31638;SDS011;18248;51.522;7.020;2023-02-15T03:55:58;50.95;;;22.77;;
31638;SDS011;18248;51.522;7.020;2023-02-15T03:58:58;59.78;;;28.23;;
31638;SDS011;18248;51.522;7.020;2023-02-15T04:02:19;47.13;;;23.85;;
31638;SDS011;18248;51.522;7.020;2023-02-15T04:05:22;51.30;;;23.40;;
31638;SDS011;18248;51.522;7.020;2023-02-15T04:08:20;54.45;;;23.30;;
31638;SDS011;18248;51.522;7.020;2023-02-15T04:11:40;49.33;;;23.92;;
31638;SDS011;18248;51.522;7.020;2023-02-15T04:14:38;49.60;;;24.00;;
31638;SDS011;18248;51.522;7.020;2023-02-15T04:17:56;44.78;;;22.40;;
31638;SDS011;18248;51.522;7.020;2023-02-15T04:20:54;69.22;;;30.33;;
31638;SDS011;18248;51.522;7.020;2023-02-15T04:24:12;56.72;;;27.63;;
31638;SDS011;18248;51.522;7.020;2023-02-15T04:27:31;51.45;;;23.75;;
31638;SDS011;18248;51.522;7.020;2023-02-15T04:30:29;54.55;;;23.85;;
31638;SDS011;18248;51.522;7.020;2023-02-15T04:33:27;46.20;;;23.25;;
31638;SDS011;18248;51.522;7.020;2023-02-15T04:36:26;50.13;;;22.98;;
31638;SDS011;18248;51.522;7.020;2023-02-15T04:39:25;47.97;;;23.55;;
31638;SDS011;18248;51.522;7.020;2023-02-15T04:42:24;43.25;;;21.13;;
31638;SDS011;18248;51.522;7.020;2023-02-15T04:45:23;47.50;;;22.65;;
31638;SDS011;18248;51.522;7.020;2023-02-15T04:48:22;46.75;;;22.55;;
31638;SDS011;18248;51.522;7.020;2023-02-15T04:51:20;51.72;;;25.05;;
31638;SDS011;18248;51.522;7.020;2023-02-15T04:54:19;55.22;;;24.85;;
31638;SDS011;18248;51.522;7.020;2023-02-15T04:57:17;46.15;;;22.65;;
31638;SDS011;18248;51.522;7.020;2023-02-15T05:00:16;52.53;;;25.25;;
31638;SDS011;18248;51.522;7.020;2023-02-15T05:03:15;45.28;;;21.33;;
31638;SDS011;18248;51.522;7.020;2023-02-15T05:06:13;47.53;;;22.45;;
31638;SDS011;18248;51.522;7.020;2023-02-15T05:09:14;61.67;;;30.48;;
31638;SDS011;18248;51.522;7.020;2023-02-15T05:12:14;55.03;;;27.52;;
31638;SDS011;18248;51.522;7.020;2023-02-15T05:15:12;46.40;;;22.92;;
31638;SDS011;18248;51.522;7.020;2023-02-15T05:18:11;46.88;;;24.30;;
31638;SDS011;18248;51.522;7.020;2023-02-15T05:21:09;55.35;;;27.10;;
31638;SDS011;18248;51.522;7.020;2023-02-15T05:24:11;69.72;;;34.53;;
31638;SDS011;18248;51.522;7.020;2023-02-15T05:27:28;59.05;;;26.75;;
31638;SDS011;18248;51.522;7.020;2023-02-15T05:30:46;58.30;;;26.40;;
31638;SDS011;18248;51.522;7.020;2023-02-15T05:33:48;46.83;;;24.13;;
31638;SDS011;18248;51.522;7.020;2023-02-15T05:36:47;68.35;;;31.73;;
31638;SDS011;18248;51.522;7.020;2023-02-15T05:39:47;61.65;;;29.15;;
31638;SDS011;18248;51.522;7.020;2023-02-15T05:42:46;47.30;;;23.30;;
31638;SDS011;18248;51.522;7.020;2023-02-15T05:45:45;60.03;;;28.33;;
31638;SDS011;18248;51.522;7.020;2023-02-15T05:48:46;40.80;;;21.52;;
31638;SDS011;18248;51.522;7.020;2023-02-15T05:51:45;39.22;;;20.70;;
31638;SDS011;18248;51.522;7.020;2023-02-15T05:54:43;59.13;;;25.67;;
31638;SDS011;18248;51.522;7.020;2023-02-15T05:57:42;45.45;;;22.70;;
31638;SDS011;18248;51.522;7.020;2023-02-15T06:00:40;52.25;;;26.38;;
31638;SDS011;18248;51.522;7.020;2023-02-15T06:03:39;50.38;;;23.08;;
31638;SDS011;18248;51.522;7.020;2023-02-15T06:06:38;52.58;;;23.95;;
31638;SDS011;18248;51.522;7.020;2023-02-15T06:09:36;42.50;;;21.48;;
31638;SDS011;18248;51.522;7.020;2023-02-15T06:12:35;51.97;;;24.48;;
31638;SDS011;18248;51.522;7.020;2023-02-15T06:15:33;52.70;;;25.52;;
31638;SDS011;18248;51.522;7.020;2023-02-15T06:18:32;45.13;;;22.92;;
31638;SDS011;18248;51.522;7.020;2023-02-15T06:21:30;56.42;;;24.67;;
31638;SDS011;18248;51.522;7.020;2023-02-15T06:24:29;58.28;;;26.73;;
31638;SDS011;18248;51.522;7.020;2023-02-15T06:27:28;48.65;;;24.73;;
31638;SDS011;18248;51.522;7.020;2023-02-15T06:30:27;50.25;;;23.73;;
31638;SDS011;18248;51.522;7.020;2023-02-15T06:33:25;53.55;;;23.73;;
31638;SDS011;18248;51.522;7.020;2023-02-15T06:36:24;62.58;;;27.50;;
31638;SDS011;18248;51.522;7.020;2023-02-15T06:39:23;49.70;;;22.85;;
31638;SDS011;18248;51.522;7.020;2023-02-15T06:42:21;53.05;;;25.15;;
31638;SDS011;18248;51.522;7.020;2023-02-15T06:45:20;72.72;;;32.10;;
31638;SDS011;18248;51.522;7.020;2023-02-15T06:48:19;64.88;;;28.90;;
31638;SDS011;18248;51.522;7.020;2023-02-15T06:51:17;49.75;;;24.15;;
31638;SDS011;18248;51.522;7.020;2023-02-15T06:54:16;53.47;;;25.45;;
31638;SDS011;18248;51.522;7.020;2023-02-15T06:57:14;51.92;;;23.48;;
31638;SDS011;18248;51.522;7.020;2023-02-15T07:00:13;67.88;;;26.55;;
31638;SDS011;18248;51.522;7.020;2023-02-15T07:03:12;48.78;;;23.50;;
31638;SDS011;18248;51.522;7.020;2023-02-15T07:06:12;57.55;;;25.35;;
31638;SDS011;18248;51.522;7.020;2023-02-15T07:09:10;63.95;;;28.02;;
31638;SDS011;18248;51.522;7.020;2023-02-15T07:12:09;48.90;;;23.35;;
31638;SDS011;18248;51.522;7.020;2023-02-15T07:15:26;46.50;;;24.10;;
31638;SDS011;18248;51.522;7.020;2023-02-15T07:18:25;48.78;;;23.60;;
31638;SDS011;18248;51.522;7.020;2023-02-15T07:21:23;53.88;;;24.05;;
31638;SDS011;18248;51.522;7.020;2023-02-15T07:24:22;56.05;;;24.65;;
31638;SDS011;18248;51.522;7.020;2023-02-15T07:27:21;47.60;;;23.80;;
31638;SDS011;18248;51.522;7.020;2023-02-15T07:30:19;49.95;;;24.00;;
31638;SDS011;18248;51.522;7.020;2023-02-15T07:33:18;62.13;;;28.92;;
31638;SDS011;18248;51.522;7.020;2023-02-15T07:36:22;67.70;;;30.35;;
31638;SDS011;18248;51.522;7.020;2023-02-15T07:39:21;55.38;;;24.83;;
31638;SDS011;18248;51.522;7.020;2023-02-15T07:42:19;55.95;;;29.02;;
31638;SDS011;18248;51.522;7.020;2023-02-15T07:45:19;54.95;;;26.58;;
31638;SDS011;18248;51.522;7.020;2023-02-15T07:48:18;58.15;;;27.85;;
31638;SDS011;18248;51.522;7.020;2023-02-15T07:51:16;58.72;;;26.95;;
31638;SDS011;18248;51.522;7.020;2023-02-15T07:54:15;61.63;;;28.90;;
31638;SDS011;18248;51.522;7.020;2023-02-15T07:57:13;53.28;;;26.20;;
31638;SDS011;18248;51.522;7.020;2023-02-15T08:00:12;67.38;;;32.33;;
31638;SDS011;18248;51.522;7.020;2023-02-15T08:03:12;53.53;;;25.92;;
31638;SDS011;18248;51.522;7.020;2023-02-15T08:06:13;48.95;;;23.80;;
31638;SDS011;18248;51.522;7.020;2023-02-15T08:09:13;52.88;;;26.95;;
31638;SDS011;18248;51.522;7.020;2023-02-15T08:12:13;53.33;;;26.38;;
31638;SDS011;18248;51.522;7.020;2023-02-15T08:15:11;55.25;;;27.73;;
31638;SDS011;18248;51.522;7.020;2023-02-15T08:18:10;55.78;;;27.35;;
31638;SDS011;18248;51.522;7.020;2023-02-15T08:21:08;49.80;;;25.63;;
31638;SDS011;18248;51.522;7.020;2023-02-15T08:24:07;63.05;;;28.77;;
31638;SDS011;18248;51.522;7.020;2023-02-15T08:27:07;52.65;;;25.30;;
31638;SDS011;18248;51.522;7.020;2023-02-15T08:30:08;61.00;;;27.17;;
31638;SDS011;18248;51.522;7.020;2023-02-15T08:33:07;64.80;;;32.45;;
31638;SDS011;18248;51.522;7.020;2023-02-15T08:36:09;54.95;;;28.90;;
31638;SDS011;18248;51.522;7.020;2023-02-15T08:39:12;56.30;;;27.52;;
31638;SDS011;18248;51.522;7.020;2023-02-15T08:42:21;57.78;;;27.63;;
31638;SDS011;18248;51.522;7.020;2023-02-15T08:45:21;52.83;;;27.58;;
31638;SDS011;18248;51.522;7.020;2023-02-15T08:48:20;52.28;;;27.20;;
31638;SDS011;18248;51.522;7.020;2023-02-15T08:51:20;54.97;;;28.75;;
31638;SDS011;18248;51.522;7.020;2023-02-15T08:54:22;55.80;;;28.05;;
31638;SDS011;18248;51.522;7.020;2023-02-15T08:57:20;59.28;;;29.52;;
31638;SDS011;18248;51.522;7.020;2023-02-15T09:00:19;58.20;;;28.48;;
31638;SDS011;18248;51.522;7.020;2023-02-15T09:03:20;58.80;;;29.02;;
31638;SDS011;18248;51.522;7.020;2023-02-15T09:06:19;59.08;;;31.13;;
31638;SDS011;18248;51.522;7.020;2023-02-15T09:09:18;63.53;;;31.08;;
31638;SDS011;18248;51.522;7.020;2023-02-15T09:12:17;64.40;;;32.42;;
31638;SDS011;18248;51.522;7.020;2023-02-15T09:15:16;62.97;;;31.63;;
31638;SDS011;18248;51.522;7.020;2023-02-15T09:18:14;60.25;;;30.70;;
31638;SDS011;18248;51.522;7.020;2023-02-15T09:21:16;57.35;;;31.00;;
31638;SDS011;18248;51.522;7.020;2023-02-15T09:24:17;64.75;;;29.88;;
31638;SDS011;18248;51.522;7.020;2023-02-15T09:27:16;64.80;;;29.42;;
31638;SDS011;18248;51.522;7.020;2023-02-15T09:30:15;57.67;;;30.75;;
31638;SDS011;18248;51.522;7.020;2023-02-15T09:33:13;63.33;;;31.58;;
31638;SDS011;18248;51.522;7.020;2023-02-15T09:36:16;68.68;;;35.33;;
31638;SDS011;18248;51.522;7.020;2023-02-15T09:39:22;64.53;;;32.47;;
31638;SDS011;18248;51.522;7.020;2023-02-15T09:45:48;63.88;;;31.52;;
31638;SDS011;18248;51.522;7.020;2023-02-15T09:49:11;64.93;;;32.20;;
31638;SDS011;18248;51.522;7.020;2023-02-15T09:52:33;50.17;;;28.15;;
31638;SDS011;18248;51.522;7.020;2023-02-15T09:55:54;53.72;;;28.98;;
31638;SDS011;18248;51.522;7.020;2023-02-15T10:02:54;56.78;;;29.77;;
31638;SDS011;18248;51.522;7.020;2023-02-15T10:15:46;49.08;;;28.67;;
31638;SDS011;18248;51.522;7.020;2023-02-15T10:31:50;60.75;;;27.60;;
31638;SDS011;18248;51.522;7.020;2023-02-15T10:41:41;55.00;;;26.50;;
31638;SDS011;18248;51.522;7.020;2023-02-15T10:48:05;50.08;;;26.00;;
31638;SDS011;18248;51.522;7.020;2023-02-15T10:51:16;45.95;;;23.98;;
31638;SDS011;18248;51.522;7.020;2023-02-15T10:54:36;45.72;;;20.80;;
31638;SDS011;18248;51.522;7.020;2023-02-15T11:00:54;42.03;;;20.40;;
31638;SDS011;18248;51.522;7.020;2023-02-15T11:07:11;33.53;;;16.85;;
31638;SDS011;18248;51.522;7.020;2023-02-15T11:13:33;34.38;;;16.80;;
31638;SDS011;18248;51.522;7.020;2023-02-15T11:16:36;29.20;;;15.30;;
31638;SDS011;18248;51.522;7.020;2023-02-15T11:19:43;31.85;;;17.08;;
31638;SDS011;18248;51.522;7.020;2023-02-15T11:22:46;37.13;;;17.42;;
31638;SDS011;18248;51.522;7.020;2023-02-15T11:25:53;35.05;;;16.77;;
31638;SDS011;18248;51.522;7.020;2023-02-15T11:28:57;30.60;;;15.00;;
31638;SDS011;18248;51.522;7.020;2023-02-15T11:32:17;28.63;;;15.43;;
31638;SDS011;18248;51.522;7.020;2023-02-15T11:35:37;28.38;;;14.27;;
31638;SDS011;18248;51.522;7.020;2023-02-15T11:38:49;32.97;;;15.45;;
31638;SDS011;18248;51.522;7.020;2023-02-15T11:41:59;28.20;;;14.95;;
31638;SDS011;18248;51.522;7.020;2023-02-15T11:45:17;22.20;;;13.30;;
31638;SDS011;18248;51.522;7.020;2023-02-15T11:48:25;26.70;;;12.20;;
31638;SDS011;18248;51.522;7.020;2023-02-15T11:51:25;26.95;;;13.48;;
31638;SDS011;18248;51.522;7.020;2023-02-15T11:54:28;30.35;;;13.40;;
31638;SDS011;18248;51.522;7.020;2023-02-15T11:57:33;24.98;;;13.02;;
31638;SDS011;18248;51.522;7.020;2023-02-15T12:00:38;21.90;;;12.63;;
31638;SDS011;18248;51.522;7.020;2023-02-15T12:06:46;24.00;;;12.60;;
31638;SDS011;18248;51.522;7.020;2023-02-15T12:13:12;26.45;;;12.73;;
31638;SDS011;18248;51.522;7.020;2023-02-15T12:16:13;26.95;;;13.00;;
31638;SDS011;18248;51.522;7.020;2023-02-15T12:19:21;28.33;;;13.02;;
31638;SDS011;18248;51.522;7.020;2023-02-15T12:22:31;27.17;;;13.43;;
31638;SDS011;18248;51.522;7.020;2023-02-15T12:25:39;25.90;;;13.90;;
31638;SDS011;18248;51.522;7.020;2023-02-15T12:28:52;23.88;;;12.32;;
31638;SDS011;18248;51.522;7.020;2023-02-15T12:31:55;26.38;;;12.95;;
31638;SDS011;18248;51.522;7.020;2023-02-15T12:34:59;25.15;;;12.15;;
31638;SDS011;18248;51.522;7.020;2023-02-15T12:41:24;25.30;;;12.20;;
31638;SDS011;18248;51.522;7.020;2023-02-15T12:44:24;26.63;;;12.82;;
31638;SDS011;18248;51.522;7.020;2023-02-15T12:47:29;26.80;;;13.23;;
31638;SDS011;18248;51.522;7.020;2023-02-15T12:50:29;25.90;;;13.35;;
31638;SDS011;18248;51.522;7.020;2023-02-15T12:53:31;29.45;;;12.70;;
31638;SDS011;18248;51.522;7.020;2023-02-15T12:56:31;22.90;;;11.43;;
31638;SDS011;18248;51.522;7.020;2023-02-15T12:59:30;25.80;;;12.68;;
31638;SDS011;18248;51.522;7.020;2023-02-15T13:02:44;29.15;;;12.73;;
31638;SDS011;18248;51.522;7.020;2023-02-15T13:05:48;20.70;;;11.27;;
31638;SDS011;18248;51.522;7.020;2023-02-15T13:08:53;28.42;;;13.60;;
31638;SDS011;18248;51.522;7.020;2023-02-15T13:11:55;27.48;;;13.10;;
31638;SDS011;18248;51.522;7.020;2023-02-15T13:14:56;25.15;;;12.75;;
31638;SDS011;18248;51.522;7.020;2023-02-15T13:17:56;26.33;;;12.95;;
31638;SDS011;18248;51.522;7.020;2023-02-15T13:20:56;27.25;;;13.90;;
31638;SDS011;18248;51.522;7.020;2023-02-15T13:23:57;30.08;;;13.57;;
31638;SDS011;18248;51.522;7.020;2023-02-15T13:27:05;25.15;;;12.13;;
31638;SDS011;18248;51.522;7.020;2023-02-15T13:30:20;34.00;;;12.80;;
31638;SDS011;18248;51.522;7.020;2023-02-15T13:33:34;24.48;;;12.82;;
31638;SDS011;18248;51.522;7.020;2023-02-15T13:39:58;29.88;;;13.20;;
31638;SDS011;18248;51.522;7.020;2023-02-15T13:52:51;25.38;;;12.57;;
31638;SDS011;18248;51.522;7.020;2023-02-15T13:59:24;25.90;;;12.48;;
31638;SDS011;18248;51.522;7.020;2023-02-15T14:06:14;25.63;;;12.43;;
31638;SDS011;18248;51.522;7.020;2023-02-15T14:22:41;29.75;;;12.80;;
31638;SDS011;18248;51.522;7.020;2023-02-15T14:25:51;26.45;;;11.75;;
31638;SDS011;18248;51.522;7.020;2023-02-15T14:36:03;23.45;;;11.45;;
31638;SDS011;18248;51.522;7.020;2023-02-15T14:43:06;21.73;;;11.57;;
31638;SDS011;18248;51.522;7.020;2023-02-15T14:46:18;28.27;;;12.50;;
31638;SDS011;18248;51.522;7.020;2023-02-15T14:49:32;30.40;;;13.43;;
31638;SDS011;18248;51.522;7.020;2023-02-15T14:52:38;22.75;;;11.32;;
31638;SDS011;18248;51.522;7.020;2023-02-15T14:56:17;25.08;;;12.45;;
31638;SDS011;18248;51.522;7.020;2023-02-15T14:59:19;25.88;;;12.18;;
31638;SDS011;18248;51.522;7.020;2023-02-15T15:05:48;29.48;;;13.55;;
31638;SDS011;18248;51.522;7.020;2023-02-15T15:08:52;30.33;;;13.80;;
31638;SDS011;18248;51.522;7.020;2023-02-15T15:18:47;28.23;;;13.15;;
31638;SDS011;18248;51.522;7.020;2023-02-15T15:24:52;31.40;;;13.75;;
31638;SDS011;18248;51.522;7.020;2023-02-15T15:28:00;26.95;;;13.27;;
31638;SDS011;18248;51.522;7.020;2023-02-15T15:31:08;26.38;;;13.93;;
31638;SDS011;18248;51.522;7.020;2023-02-15T15:34:35;25.73;;;11.48;;
31638;SDS011;18248;51.522;7.020;2023-02-15T15:38:03;25.13;;;10.65;;
31638;SDS011;18248;51.522;7.020;2023-02-15T15:41:42;24.08;;;11.35;;
31638;SDS011;18248;51.522;7.020;2023-02-15T15:48:28;24.73;;;11.38;;
31638;SDS011;18248;51.522;7.020;2023-02-15T15:51:34;33.00;;;12.25;;
31638;SDS011;18248;51.522;7.020;2023-02-15T15:54:38;22.88;;;10.68;;
31638;SDS011;18248;51.522;7.020;2023-02-15T15:57:39;26.95;;;11.02;;
31638;SDS011;18248;51.522;7.020;2023-02-15T16:00:44;31.02;;;11.63;;
31638;SDS011;18248;51.522;7.020;2023-02-15T16:06:54;25.58;;;10.95;;
31638;SDS011;18248;51.522;7.020;2023-02-15T16:10:04;19.20;;;10.02;;
31638;SDS011;18248;51.522;7.020;2023-02-15T16:13:18;26.58;;;12.23;;
31638;SDS011;18248;51.522;7.020;2023-02-15T16:16:23;23.67;;;11.63;;
31638;SDS011;18248;51.522;7.020;2023-02-15T16:19:27;24.58;;;11.60;;
31638;SDS011;18248;51.522;7.020;2023-02-15T16:22:28;24.88;;;12.00;;
31638;SDS011;18248;51.522;7.020;2023-02-15T16:25:31;28.45;;;12.35;;
31638;SDS011;18248;51.522;7.020;2023-02-15T16:28:51;30.38;;;14.02;;
31638;SDS011;18248;51.522;7.020;2023-02-15T16:31:58;29.10;;;14.45;;
31638;SDS011;18248;51.522;7.020;2023-02-15T16:35:01;30.38;;;14.98;;
31638;SDS011;18248;51.522;7.020;2023-02-15T16:38:02;31.30;;;15.23;;
31638;SDS011;18248;51.522;7.020;2023-02-15T16:41:01;32.35;;;16.30;;
31638;SDS011;18248;51.522;7.020;2023-02-15T16:44:06;38.13;;;17.58;;
31638;SDS011;18248;51.522;7.020;2023-02-15T16:47:17;30.23;;;15.30;;
31638;SDS011;18248;51.522;7.020;2023-02-15T16:50:32;33.22;;;14.48;;
31638;SDS011;18248;51.522;7.020;2023-02-15T16:53:32;29.08;;;13.90;;
31638;SDS011;18248;51.522;7.020;2023-02-15T16:56:31;28.75;;;14.13;;
31638;SDS011;18248;51.522;7.020;2023-02-15T17:02:32;35.38;;;14.20;;
31638;SDS011;18248;51.522;7.020;2023-02-15T17:05:32;26.48;;;13.07;;
31638;SDS011;18248;51.522;7.020;2023-02-15T17:08:42;23.77;;;12.50;;
31638;SDS011;18248;51.522;7.020;2023-02-15T17:11:42;24.58;;;12.75;;
31638;SDS011;18248;51.522;7.020;2023-02-15T17:14:41;32.13;;;14.43;;
31638;SDS011;18248;51.522;7.020;2023-02-15T17:17:41;33.72;;;16.52;;
31638;SDS011;18248;51.522;7.020;2023-02-15T17:20:40;36.05;;;16.17;;
31638;SDS011;18248;51.522;7.020;2023-02-15T17:23:41;27.42;;;15.93;;
31638;SDS011;18248;51.522;7.020;2023-02-15T17:26:42;27.42;;;13.95;;
31638;SDS011;18248;51.522;7.020;2023-02-15T17:29:43;30.23;;;15.10;;
31638;SDS011;18248;51.522;7.020;2023-02-15T17:32:58;23.73;;;11.85;;
31638;SDS011;18248;51.522;7.020;2023-02-15T17:39:18;25.45;;;13.15;;
31638;SDS011;18248;51.522;7.020;2023-02-15T17:42:18;27.92;;;13.13;;
31638;SDS011;18248;51.522;7.020;2023-02-15T17:45:17;27.83;;;13.95;;
31638;SDS011;18248;51.522;7.020;2023-02-15T17:51:19;32.65;;;14.77;;
31638;SDS011;18248;51.522;7.020;2023-02-15T17:54:18;31.63;;;14.13;;
31638;SDS011;18248;51.522;7.020;2023-02-15T17:57:35;27.48;;;13.82;;
31638;SDS011;18248;51.522;7.020;2023-02-15T18:00:42;29.92;;;14.45;;
31638;SDS011;18248;51.522;7.020;2023-02-15T18:04:01;33.90;;;17.92;;
31638;SDS011;18248;51.522;7.020;2023-02-15T18:07:18;28.30;;;15.13;;
31638;SDS011;18248;51.522;7.020;2023-02-15T18:10:35;31.80;;;15.30;;
31638;SDS011;18248;51.522;7.020;2023-02-15T18:13:53;31.50;;;14.57;;
31638;SDS011;18248;51.522;7.020;2023-02-15T18:16:53;30.20;;;14.82;;
31638;SDS011;18248;51.522;7.020;2023-02-15T18:19:52;30.38;;;13.82;;
31638;SDS011;18248;51.522;7.020;2023-02-15T18:22:51;29.02;;;14.27;;
31638;SDS011;18248;51.522;7.020;2023-02-15T18:25:49;26.08;;;13.48;;
31638;SDS011;18248;51.522;7.020;2023-02-15T18:28:49;26.90;;;13.38;;
31638;SDS011;18248;51.522;7.020;2023-02-15T18:31:51;23.50;;;12.90;;
31638;SDS011;18248;51.522;7.020;2023-02-15T18:34:52;25.88;;;12.98;;
31638;SDS011;18248;51.522;7.020;2023-02-15T18:37:54;24.92;;;13.23;;
31638;SDS011;18248;51.522;7.020;2023-02-15T18:40:53;29.65;;;14.45;;
31638;SDS011;18248;51.522;7.020;2023-02-15T18:43:52;24.50;;;12.68;;
31638;SDS011;18248;51.522;7.020;2023-02-15T18:46:52;29.52;;;15.25;;
31638;SDS011;18248;51.522;7.020;2023-02-15T18:49:50;28.50;;;13.88;;
31638;SDS011;18248;51.522;7.020;2023-02-15T18:52:49;31.38;;;14.23;;
31638;SDS011;18248;51.522;7.020;2023-02-15T18:55:48;26.15;;;14.23;;
31638;SDS011;18248;51.522;7.020;2023-02-15T18:58:47;26.17;;;13.65;;
31638;SDS011;18248;51.522;7.020;2023-02-15T19:01:46;25.10;;;13.15;;
31638;SDS011;18248;51.522;7.020;2023-02-15T19:04:45;24.75;;;13.90;;
31638;SDS011;18248;51.522;7.020;2023-02-15T19:07:44;26.20;;;14.13;;
31638;SDS011;18248;51.522;7.020;2023-02-15T19:10:45;29.60;;;15.75;;
31638;SDS011;18248;51.522;7.020;2023-02-15T19:13:44;26.83;;;14.25;;
31638;SDS011;18248;51.522;7.020;2023-02-15T19:16:45;25.70;;;13.93;;
31638;SDS011;18248;51.522;7.020;2023-02-15T19:19:44;26.25;;;12.68;;
31638;SDS011;18248;51.522;7.020;2023-02-15T19:22:43;22.08;;;12.38;;
31638;SDS011;18248;51.522;7.020;2023-02-15T19:25:45;23.05;;;13.18;;
31638;SDS011;18248;51.522;7.020;2023-02-15T19:28:45;28.98;;;15.32;;
31638;SDS011;18248;51.522;7.020;2023-02-15T19:31:44;33.00;;;14.93;;
31638;SDS011;18248;51.522;7.020;2023-02-15T19:34:42;25.73;;;14.85;;
31638;SDS011;18248;51.522;7.020;2023-02-15T19:37:42;33.72;;;16.95;;
31638;SDS011;18248;51.522;7.020;2023-02-15T19:40:44;28.30;;;15.15;;
31638;SDS011;18248;51.522;7.020;2023-02-15T19:43:44;31.95;;;14.77;;
31638;SDS011;18248;51.522;7.020;2023-02-15T19:46:50;36.38;;;18.27;;
31638;SDS011;18248;51.522;7.020;2023-02-15T19:49:48;29.48;;;15.93;;
31638;SDS011;18248;51.522;7.020;2023-02-15T19:52:47;34.17;;;18.23;;
31638;SDS011;18248;51.522;7.020;2023-02-15T19:55:46;38.55;;;17.77;;
31638;SDS011;18248;51.522;7.020;2023-02-15T19:58:45;34.17;;;17.50;;
31638;SDS011;18248;51.522;7.020;2023-02-15T20:01:45;29.67;;;15.70;;
31638;SDS011;18248;51.522;7.020;2023-02-15T20:04:43;34.03;;;17.48;;
31638;SDS011;18248;51.522;7.020;2023-02-15T20:07:43;31.85;;;15.90;;
31638;SDS011;18248;51.522;7.020;2023-02-15T20:10:44;28.95;;;15.60;;
31638;SDS011;18248;51.522;7.020;2023-02-15T20:13:43;30.35;;;15.68;;
31638;SDS011;18248;51.522;7.020;2023-02-15T20:16:41;31.85;;;17.02;;
31638;SDS011;18248;51.522;7.020;2023-02-15T20:19:40;30.38;;;16.67;;
31638;SDS011;18248;51.522;7.020;2023-02-15T20:22:39;43.85;;;19.52;;
31638;SDS011;18248;51.522;7.020;2023-02-15T20:25:41;57.42;;;24.15;;
31638;SDS011;18248;51.522;7.020;2023-02-15T20:28:39;73.75;;;30.15;;